createdAt,value
2023-04-27T00:02:03.129Z,6.74
2023-04-27T00:04:29.723Z,6.72
2023-04-27T00:06:56.383Z,6.65
2023-04-27T00:09:22.938Z,6.65
2023-04-27T00:11:49.346Z,6.62
2023-04-27T00:14:15.926Z,6.61
2023-04-27T00:16:42.677Z,6.58
2023-04-27T00:19:09.202Z,6.54
2023-04-27T00:21:35.600Z,6.53
2023-04-27T00:24:02.089Z,6.51
2023-04-27T00:26:28.642Z,6.50
2023-04-27T00:28:55.331Z,6.48
2023-04-27T00:31:24.082Z,6.46
2023-04-27T00:33:50.676Z,6.43
2023-04-27T00:36:17.114Z,6.43
2023-04-27T00:38:43.510Z,6.40
2023-04-27T00:41:10.336Z,6.37
2023-04-27T00:43:44.508Z,6.35
2023-04-27T00:46:13.377Z,6.32
2023-04-27T00:48:41.066Z,6.31
2023-04-27T00:51:07.525Z,6.28
2023-04-27T00:53:34.927Z,6.24
2023-04-27T00:56:01.359Z,6.22
2023-04-27T00:58:28.701Z,6.22
2023-04-27T01:00:55.546Z,6.23
2023-04-27T01:03:22.867Z,6.19
2023-04-27T01:05:49.487Z,6.16
2023-04-27T01:08:15.922Z,6.14
2023-04-27T01:10:42.716Z,6.12
2023-04-27T01:13:10.269Z,6.10
2023-04-27T01:15:37.911Z,6.10
2023-04-27T01:18:09.685Z,6.06
2023-04-27T01:20:36.211Z,6.04
2023-04-27T01:23:02.578Z,6.04
2023-04-27T01:25:29.090Z,6.00
2023-04-27T01:27:55.541Z,5.99
2023-04-27T01:30:25.102Z,5.97
2023-04-27T01:32:51.721Z,5.94
2023-04-27T01:35:19.027Z,5.92
2023-04-27T01:37:45.603Z,5.91
2023-04-27T01:40:13.038Z,5.89
2023-04-27T01:42:39.453Z,5.88
2023-04-27T01:45:09.095Z,5.85
2023-04-27T01:47:35.670Z,5.83
2023-04-27T01:50:02.337Z,5.80
2023-04-27T01:52:28.785Z,5.81
2023-04-27T01:54:55.472Z,5.80
2023-04-27T01:57:22.690Z,5.80
2023-04-27T01:59:49.228Z,5.78
2023-04-27T02:02:16.456Z,5.78
2023-04-27T02:04:43.235Z,5.76
2023-04-27T02:07:09.976Z,5.75
2023-04-27T02:09:36.608Z,5.74
2023-04-27T02:12:03.673Z,5.71
2023-04-27T02:14:30.081Z,5.70
2023-04-27T02:16:56.517Z,5.68
2023-04-27T02:19:23.302Z,5.68
2023-04-27T02:21:49.829Z,5.66
2023-04-27T02:24:16.388Z,5.64
2023-04-27T02:26:44.810Z,5.63
2023-04-27T02:29:11.434Z,5.60
2023-04-27T02:31:38.377Z,5.59
2023-04-27T02:34:04.809Z,5.59
2023-04-27T02:36:31.612Z,5.61
2023-04-27T02:38:58.081Z,5.58
2023-04-27T02:41:27.470Z,5.56
2023-04-27T02:43:53.888Z,5.52
2023-04-27T02:46:20.339Z,5.51
2023-04-27T02:48:46.904Z,5.50
2023-04-27T02:51:13.350Z,5.49
2023-04-27T02:53:39.866Z,5.47
2023-04-27T02:56:06.596Z,5.45
2023-04-27T02:58:33.006Z,5.44
2023-04-27T03:00:59.566Z,5.44
2023-04-27T03:03:26.350Z,5.42
2023-04-27T03:05:52.978Z,5.44
2023-04-27T03:08:19.492Z,5.44
2023-04-27T03:10:46.031Z,5.43
2023-04-27T03:13:14.310Z,5.43
2023-04-27T03:15:43.297Z,5.41
2023-04-27T03:18:09.830Z,5.40
2023-04-27T03:20:36.507Z,5.40
2023-04-27T03:23:03.098Z,5.37
2023-04-27T03:25:29.555Z,5.35
2023-04-27T03:27:56.337Z,5.33
2023-04-27T03:30:22.835Z,5.30
2023-04-27T03:32:49.302Z,5.29
2023-04-27T03:35:15.888Z,5.28
2023-04-27T03:37:42.301Z,5.29
2023-04-27T03:40:09.315Z,5.29
2023-04-27T03:42:36.303Z,5.29
2023-04-27T03:45:03.008Z,5.28
2023-04-27T03:47:29.600Z,5.28
2023-04-27T03:49:57.087Z,5.26
2023-04-27T03:52:23.653Z,5.26
2023-04-27T03:54:50.106Z,5.27
2023-04-27T03:57:17.842Z,5.28
2023-04-27T03:59:44.259Z,5.28
2023-04-27T04:02:11.658Z,5.27
2023-04-27T04:04:38.951Z,5.26
2023-04-27T04:07:05.770Z,5.24
2023-04-27T04:09:32.356Z,5.23
2023-04-27T04:11:59.315Z,5.21
2023-04-27T04:14:27.856Z,5.19
2023-04-27T04:16:54.955Z,5.16
2023-04-27T04:19:22.151Z,5.13
2023-04-27T04:21:48.760Z,5.12
2023-04-27T04:24:16.328Z,5.11
2023-04-27T04:26:43.101Z,5.09
2023-04-27T04:29:10.945Z,5.05
2023-04-27T04:31:37.961Z,5.01
2023-04-27T04:34:04.823Z,5.00
2023-04-27T04:36:31.980Z,4.99
2023-04-27T04:38:58.726Z,5.00
2023-04-27T04:41:26.225Z,5.00
2023-04-27T04:43:52.879Z,5.02
2023-04-27T04:46:19.980Z,5.03
2023-04-27T04:48:46.880Z,5.05
2023-04-27T04:51:13.494Z,5.08
2023-04-27T04:53:39.999Z,5.08
2023-04-27T04:56:10.995Z,5.11
2023-04-27T04:58:37.494Z,5.18
2023-04-27T05:01:07.360Z,5.21
2023-04-27T05:03:34.712Z,5.29
2023-04-27T05:06:01.283Z,5.38
2023-04-27T05:08:27.855Z,5.53
2023-04-27T05:10:54.741Z,5.63
2023-04-27T05:13:21.630Z,5.77
2023-04-27T05:15:48.317Z,5.94
2023-04-27T05:18:14.855Z,6.15
2023-04-27T05:20:41.410Z,6.35
2023-04-27T05:23:07.936Z,6.48
2023-04-27T05:25:41.711Z,6.60
2023-04-27T05:28:09.590Z,6.73
2023-04-27T05:30:36.456Z,6.85
2023-04-27T05:33:04.040Z,6.91
2023-04-27T05:35:31.136Z,6.90
2023-04-27T05:37:57.905Z,6.84
2023-04-27T05:40:24.407Z,6.69
2023-04-27T05:42:51.061Z,6.60
2023-04-27T05:45:17.633Z,6.53
2023-04-27T05:47:44.059Z,6.49
2023-04-27T05:50:11.136Z,6.41
2023-04-27T05:52:38.956Z,6.42
2023-04-27T05:55:06.714Z,6.48
2023-04-27T05:57:33.317Z,6.54
2023-04-27T06:00:00.616Z,6.65
2023-04-27T06:02:27.150Z,6.81
2023-04-27T06:04:53.649Z,7.01
2023-04-27T06:07:20.076Z,7.15
2023-04-27T06:09:46.446Z,7.23
2023-04-27T06:12:12.871Z,7.30
2023-04-27T06:14:39.243Z,7.37
2023-04-27T06:17:08.450Z,7.52
2023-04-27T06:19:34.943Z,7.65
2023-04-27T06:22:01.670Z,7.82
2023-04-27T06:24:28.762Z,8.01
2023-04-27T06:26:55.359Z,8.09
2023-04-27T06:29:21.726Z,8.18
2023-04-27T06:31:48.231Z,8.30
2023-04-27T06:34:14.708Z,8.29
2023-04-27T06:36:41.208Z,8.16
2023-04-27T06:39:07.681Z,8.09
2023-04-27T06:41:34.049Z,8.09
2023-04-27T06:44:00.537Z,8.09
2023-04-27T06:46:27.478Z,8.09
2023-04-27T06:48:54.017Z,8.04
2023-04-27T06:51:20.548Z,8.06
2023-04-27T06:53:46.960Z,8.08
2023-04-27T06:56:13.416Z,8.20
2023-04-27T06:58:39.899Z,8.27
2023-04-27T07:01:06.798Z,8.28
2023-04-27T07:03:36.375Z,8.36
2023-04-27T07:06:03.165Z,8.40
2023-04-27T07:08:29.898Z,8.42
2023-04-27T07:10:56.389Z,8.38
2023-04-27T07:13:22.867Z,8.33
2023-04-27T07:15:57.949Z,8.30
2023-04-27T07:18:24.687Z,8.31
2023-04-27T07:20:51.154Z,8.39
2023-04-27T07:23:17.620Z,8.53
2023-04-27T07:25:45.449Z,8.57
2023-04-27T07:28:12.866Z,8.58
2023-04-27T07:30:39.370Z,8.60
2023-04-27T07:33:05.892Z,8.65
2023-04-27T07:35:32.425Z,8.76
2023-04-27T07:38:02.562Z,8.91
2023-04-27T07:40:30.003Z,9.03
2023-04-27T07:42:58.122Z,9.05
2023-04-27T07:45:31.724Z,9.04
2023-04-27T07:48:00.121Z,9.08
2023-04-27T07:50:28.458Z,9.21
2023-04-27T07:52:54.992Z,9.33
2023-04-27T07:55:23.475Z,9.41
2023-04-27T07:57:50.812Z,9.56
2023-04-27T08:00:17.836Z,9.62
2023-04-27T08:02:44.438Z,9.62
2023-04-27T08:05:11.515Z,9.68
2023-04-27T08:07:42.806Z,9.74
2023-04-27T08:10:11.169Z,9.85
2023-04-27T08:12:37.588Z,9.94
2023-04-27T08:15:05.716Z,10.00
2023-04-27T08:17:32.131Z,10.03
2023-04-27T08:19:58.670Z,10.05
2023-04-27T08:22:25.205Z,10.07
2023-04-27T08:24:51.692Z,10.14
2023-04-27T08:27:18.097Z,10.19
2023-04-27T08:29:48.633Z,10.26
2023-04-27T08:32:16.081Z,10.31
2023-04-27T08:34:44.855Z,10.38
2023-04-27T08:37:11.296Z,10.42
2023-04-27T08:39:37.719Z,10.38
2023-04-27T08:42:14.144Z,10.39
2023-04-27T08:44:41.149Z,10.44
2023-04-27T08:47:08.962Z,10.48
2023-04-27T08:49:38.277Z,10.52
2023-04-27T08:52:11.544Z,10.54
2023-04-27T08:54:38.053Z,10.66
2023-04-27T08:57:11.783Z,10.74
2023-04-27T08:59:41.374Z,10.88
2023-04-27T09:02:20.117Z,11.01
2023-04-27T09:04:46.893Z,11.04
2023-04-27T09:07:18.218Z,11.02
2023-04-27T09:09:45.300Z,11.01
2023-04-27T09:12:21.698Z,11.04
2023-04-27T09:14:57.905Z,11.11
2023-04-27T09:17:28.918Z,11.12
2023-04-27T09:20:13.435Z,11.22
2023-04-27T09:22:47.902Z,11.27
2023-04-27T09:25:24.585Z,11.28
2023-04-27T09:27:51.465Z,11.36
2023-04-27T09:30:18.808Z,11.44
2023-04-27T09:32:53.641Z,11.52
2023-04-27T09:35:27.916Z,11.58
2023-04-27T09:37:55.560Z,11.64
2023-04-27T09:40:27.871Z,11.71
2023-04-27T09:42:56.730Z,11.80
2023-04-27T09:45:26.255Z,11.75
2023-04-27T09:47:52.849Z,11.72
2023-04-27T09:50:19.440Z,11.73
2023-04-27T09:52:47.062Z,11.78
2023-04-27T09:55:20.991Z,11.82
2023-04-27T09:58:15.009Z,11.86
2023-04-27T10:01:00.239Z,11.82
2023-04-27T10:03:51.261Z,11.82
2023-04-27T10:06:48.964Z,11.89
2023-04-27T10:09:17.277Z,11.98
2023-04-27T10:11:44.928Z,12.00
2023-04-27T10:14:18.468Z,12.06
2023-04-27T10:16:55.615Z,12.09
2023-04-27T10:19:23.652Z,12.10
2023-04-27T10:21:53.410Z,12.10
2023-04-27T10:24:19.817Z,12.18
2023-04-27T10:26:48.053Z,12.26
2023-04-27T10:29:16.494Z,12.29
2023-04-27T10:31:48.235Z,12.34
2023-04-27T10:34:20.688Z,12.34
2023-04-27T10:36:49.888Z,12.35
2023-04-27T10:39:25.622Z,12.37
2023-04-27T10:41:59.542Z,12.41
2023-04-27T10:44:28.588Z,12.45
2023-04-27T10:46:57.073Z,12.60
2023-04-27T10:49:23.776Z,12.66
2023-04-27T10:51:51.433Z,12.77
2023-04-27T10:54:18.713Z,12.86
2023-04-27T10:56:45.580Z,12.96
2023-04-27T10:59:12.550Z,12.99
2023-04-27T11:01:40.216Z,13.07
2023-04-27T11:04:06.869Z,13.22
2023-04-27T11:06:43.010Z,13.44
2023-04-27T11:09:10.882Z,13.56
2023-04-27T11:11:37.287Z,13.46
2023-04-27T11:14:03.838Z,13.29
2023-04-27T11:16:33.392Z,13.18
2023-04-27T11:19:05.331Z,13.07
2023-04-27T11:21:32.325Z,13.08
2023-04-27T11:24:08.836Z,13.23
2023-04-27T11:26:35.402Z,13.31
2023-04-27T11:29:10.145Z,13.39
2023-04-27T11:31:40.843Z,13.45
2023-04-27T11:34:08.211Z,13.60
2023-04-27T11:36:34.712Z,13.55
2023-04-27T11:39:01.259Z,13.58
2023-04-27T11:41:37.232Z,13.69
2023-04-27T11:44:07.731Z,13.75
2023-04-27T11:46:36.576Z,13.70
2023-04-27T11:49:04.668Z,13.64
2023-04-27T11:51:35.957Z,13.53
2023-04-27T11:54:06.807Z,13.64
2023-04-27T11:56:38.554Z,13.84
2023-04-27T11:59:05.850Z,14.04
2023-04-27T12:01:38.074Z,14.09
2023-04-27T12:04:05.213Z,14.07
2023-04-27T12:06:33.763Z,14.12
2023-04-27T12:09:00.858Z,14.27
2023-04-27T12:11:30.436Z,14.39
2023-04-27T12:13:57.546Z,14.48
2023-04-27T12:16:24.186Z,14.43
2023-04-27T12:18:50.709Z,14.33
2023-04-27T12:21:17.328Z,14.27
2023-04-27T12:23:44.025Z,14.34
2023-04-27T12:26:11.920Z,14.57
2023-04-27T12:28:39.518Z,14.76
2023-04-27T12:31:06.114Z,14.76
2023-04-27T12:33:32.675Z,14.65
2023-04-27T12:35:59.160Z,14.64
2023-04-27T12:38:25.609Z,14.71
2023-04-27T12:40:52.077Z,14.70
2023-04-27T12:43:18.497Z,14.72
2023-04-27T12:45:44.920Z,14.83
2023-04-27T12:48:11.804Z,14.74
2023-04-27T12:50:38.378Z,14.63
2023-04-27T12:53:04.761Z,14.43
2023-04-27T12:55:34.437Z,14.42
2023-04-27T12:58:03.322Z,14.44
2023-04-27T13:00:30.116Z,14.41
2023-04-27T13:02:57.232Z,14.18
2023-04-27T13:05:23.885Z,13.91
2023-04-27T13:07:50.351Z,13.89
2023-04-27T13:10:16.800Z,14.00
2023-04-27T13:12:43.345Z,14.09
2023-04-27T13:15:10.297Z,14.19
2023-04-27T13:17:36.951Z,14.25
2023-04-27T13:20:04.099Z,14.24
2023-04-27T13:22:30.620Z,14.23
2023-04-27T13:24:57.144Z,14.16
2023-04-27T13:27:25.247Z,14.13
2023-04-27T13:29:51.707Z,14.23
2023-04-27T13:32:18.648Z,14.24
2023-04-27T13:34:45.417Z,14.18
2023-04-27T13:37:11.894Z,14.16
2023-04-27T13:39:38.338Z,14.16
2023-04-27T13:42:04.952Z,14.07
2023-04-27T13:44:31.846Z,14.09
2023-04-27T13:46:58.571Z,14.13
2023-04-27T13:49:25.926Z,14.16
2023-04-27T13:51:52.514Z,14.20
2023-04-27T13:54:20.343Z,14.22
2023-04-27T13:56:46.811Z,14.12
2023-04-27T13:59:13.592Z,14.12
2023-04-27T14:01:40.268Z,14.05
2023-04-27T14:04:07.415Z,14.01
2023-04-27T14:06:34.191Z,13.91
2023-04-27T14:09:00.805Z,13.99
2023-04-27T14:11:27.433Z,14.17
2023-04-27T14:13:53.882Z,14.27
2023-04-27T14:16:20.870Z,14.14
2023-04-27T14:18:47.322Z,14.13
2023-04-27T14:21:13.796Z,14.08
2023-04-27T14:23:40.222Z,13.94
2023-04-27T14:26:06.603Z,13.78
2023-04-27T14:28:33.246Z,13.90
2023-04-27T14:30:59.656Z,13.89
2023-04-27T14:33:26.026Z,13.79
2023-04-27T14:35:52.527Z,13.84
2023-04-27T14:38:18.971Z,13.75
2023-04-27T14:40:45.775Z,13.66
2023-04-27T14:43:12.202Z,13.45
2023-04-27T14:45:48.062Z,13.36
2023-04-27T14:48:17.958Z,13.37
2023-04-27T14:50:44.505Z,13.44
2023-04-27T14:53:10.919Z,13.46
2023-04-27T14:55:37.345Z,13.41
2023-04-27T14:58:03.807Z,13.28
2023-04-27T15:00:30.278Z,13.26
2023-04-27T15:02:58.091Z,13.23
2023-04-27T15:05:25.071Z,13.30
2023-04-27T15:07:51.548Z,13.34
2023-04-27T15:10:18.082Z,13.10
2023-04-27T15:12:44.813Z,13.06
2023-04-27T15:15:12.872Z,12.99
2023-04-27T15:17:39.582Z,13.09
2023-04-27T15:20:06.851Z,13.27
2023-04-27T15:22:33.414Z,13.15
2023-04-27T15:24:59.935Z,13.18
2023-04-27T15:27:26.369Z,13.25
2023-04-27T15:29:58.055Z,13.31
2023-04-27T15:32:29.714Z,13.14
2023-04-27T15:34:57.986Z,12.86
2023-04-27T15:37:28.462Z,12.94
2023-04-27T15:39:55.434Z,12.98
2023-04-27T15:42:22.672Z,12.98
2023-04-27T15:44:49.224Z,13.05
2023-04-27T15:47:15.679Z,13.07
2023-04-27T15:49:53.525Z,13.05
2023-04-27T15:52:23.876Z,13.02
2023-04-27T15:54:50.389Z,12.93
2023-04-27T15:57:18.173Z,12.96
2023-04-27T15:59:44.684Z,12.94
2023-04-27T16:02:11.282Z,12.94
2023-04-27T16:04:37.796Z,12.83
2023-04-27T16:07:07.144Z,12.77
2023-04-27T16:09:33.816Z,12.91
2023-04-27T16:12:00.411Z,12.98
2023-04-27T16:14:26.922Z,12.93
2023-04-27T16:16:54.798Z,12.92
2023-04-27T16:19:21.618Z,12.77
2023-04-27T16:21:48.069Z,12.59
2023-04-27T16:24:14.518Z,12.47
2023-04-27T16:26:40.958Z,12.51
2023-04-27T16:29:07.352Z,12.62
2023-04-27T16:31:33.810Z,12.69
2023-04-27T16:34:00.525Z,12.68
2023-04-27T16:36:27.576Z,12.61
2023-04-27T16:38:53.977Z,12.59
2023-04-27T16:41:20.935Z,12.56
2023-04-27T16:43:47.791Z,12.55
2023-04-27T16:46:15.301Z,12.61
2023-04-27T16:48:41.833Z,12.75
2023-04-27T16:51:10.322Z,12.79
2023-04-27T16:53:37.198Z,12.60
2023-04-27T16:56:03.903Z,12.43
2023-04-27T16:58:30.783Z,12.39
2023-04-27T17:00:57.902Z,12.46
2023-04-27T17:03:25.064Z,12.57
2023-04-27T17:05:52.310Z,12.62
2023-04-27T17:08:18.780Z,12.54
2023-04-27T17:10:45.501Z,12.57
2023-04-27T17:13:14.591Z,12.55
2023-04-27T17:15:41.131Z,12.45
2023-04-27T17:18:09.373Z,12.42
2023-04-27T17:20:35.843Z,12.49
2023-04-27T17:23:02.280Z,12.60
2023-04-27T17:25:28.773Z,12.54
2023-04-27T17:27:55.380Z,12.51
2023-04-27T17:30:21.806Z,12.54
2023-04-27T17:32:48.327Z,12.62
2023-04-27T17:35:14.825Z,12.69
2023-04-27T17:37:41.345Z,12.68
2023-04-27T17:40:09.004Z,12.62
2023-04-27T17:42:35.989Z,12.53
2023-04-27T17:45:02.399Z,12.46
2023-04-27T17:47:28.836Z,12.46
2023-04-27T17:49:55.318Z,12.61
2023-04-27T17:52:21.773Z,12.66
2023-04-27T17:54:48.207Z,12.62
2023-04-27T17:57:14.640Z,12.63
2023-04-27T17:59:41.165Z,12.69
2023-04-27T18:02:07.752Z,12.79
2023-04-27T18:04:34.520Z,12.93
2023-04-27T18:07:01.239Z,13.02
2023-04-27T18:09:28.733Z,13.02
2023-04-27T18:11:55.962Z,12.96
2023-04-27T18:14:22.453Z,12.86
2023-04-27T18:16:49.044Z,12.87
2023-04-27T18:19:16.069Z,12.89
2023-04-27T18:21:42.980Z,12.87
2023-04-27T18:24:09.680Z,12.91
2023-04-27T18:26:36.692Z,12.93
2023-04-27T18:29:03.326Z,12.96
2023-04-27T18:31:29.752Z,12.97
2023-04-27T18:33:56.368Z,12.99
2023-04-27T18:36:22.789Z,13.02
2023-04-27T18:38:49.253Z,12.98
2023-04-27T18:41:15.732Z,12.96
2023-04-27T18:43:42.142Z,12.90
2023-04-27T18:46:08.537Z,12.85
2023-04-27T18:48:35.807Z,12.85
2023-04-27T18:51:02.226Z,12.85
2023-04-27T18:53:28.798Z,12.75
2023-04-27T18:55:55.502Z,12.76
2023-04-27T18:58:22.102Z,12.78
2023-04-27T19:00:48.625Z,12.79
2023-04-27T19:03:15.279Z,12.79
2023-04-27T19:05:43.119Z,12.81
2023-04-27T19:08:10.188Z,12.80
2023-04-27T19:10:36.901Z,12.77
2023-04-27T19:13:03.310Z,12.74
2023-04-27T19:15:29.729Z,12.73
2023-04-27T19:18:06.648Z,12.78
2023-04-27T19:20:36.274Z,12.79
2023-04-27T19:23:02.807Z,12.78
2023-04-27T19:25:29.201Z,12.72
2023-04-27T19:27:56.008Z,12.66
2023-04-27T19:30:22.773Z,12.66
2023-04-27T19:32:49.297Z,12.67
2023-04-27T19:35:15.988Z,12.71
2023-04-27T19:37:42.428Z,12.69
2023-04-27T19:40:09.514Z,12.74
2023-04-27T19:42:35.927Z,12.73
2023-04-27T19:45:03.848Z,12.77
2023-04-27T19:47:30.809Z,12.77
2023-04-27T19:49:58.864Z,12.76
2023-04-27T19:52:25.849Z,12.73
2023-04-27T19:54:53.295Z,12.73
2023-04-27T19:57:20.686Z,12.76
2023-04-27T19:59:47.387Z,12.78
2023-04-27T20:02:13.879Z,12.75
2023-04-27T20:04:41.429Z,12.63
2023-04-27T20:07:08.658Z,12.61
2023-04-27T20:09:35.384Z,12.62
2023-04-27T20:12:02.051Z,12.61
2023-04-27T20:14:31.156Z,12.57
2023-04-27T20:16:57.962Z,12.58
2023-04-27T20:19:25.170Z,12.48
2023-04-27T20:21:51.702Z,12.39
2023-04-27T20:24:18.254Z,12.39
2023-04-27T20:26:44.863Z,12.37
2023-04-27T20:29:11.480Z,12.32
2023-04-27T20:31:38.031Z,12.33
2023-04-27T20:34:04.464Z,12.35
2023-04-27T20:36:31.919Z,12.34
2023-04-27T20:39:00.718Z,12.34
2023-04-27T20:41:27.612Z,12.41
2023-04-27T20:43:54.008Z,12.41
2023-04-27T20:46:20.442Z,12.41
2023-04-27T20:48:47.005Z,12.37
2023-04-27T20:51:14.048Z,12.39
2023-04-27T20:53:40.431Z,12.36
2023-04-27T20:56:07.065Z,12.30
2023-04-27T20:58:34.605Z,12.26
2023-04-27T21:01:01.081Z,12.25
2023-04-27T21:03:27.738Z,12.15
2023-04-27T21:05:54.289Z,12.09
2023-04-27T21:08:20.662Z,12.10
2023-04-27T21:10:47.149Z,12.02
2023-04-27T21:13:13.634Z,11.97
2023-04-27T21:15:40.057Z,11.95
2023-04-27T21:18:09.409Z,11.92
2023-04-27T21:20:40.113Z,11.92
2023-04-27T21:23:06.666Z,11.98
2023-04-27T21:25:33.073Z,12.00
2023-04-27T21:27:59.513Z,11.96
2023-04-27T21:30:26.143Z,11.91
2023-04-27T21:32:52.678Z,11.88
2023-04-27T21:35:19.328Z,11.93
2023-04-27T21:37:45.946Z,11.92
2023-04-27T21:40:12.578Z,11.85
2023-04-27T21:42:38.980Z,11.77
2023-04-27T21:45:05.945Z,11.67
2023-04-27T21:47:32.353Z,11.55
2023-04-27T21:49:58.870Z,11.60
2023-04-27T21:52:25.375Z,11.54
2023-04-27T21:54:51.792Z,11.52
2023-04-27T21:57:19.939Z,11.53
2023-04-27T21:59:46.655Z,11.55
2023-04-27T22:02:13.600Z,11.56
2023-04-27T22:04:40.269Z,11.50
2023-04-27T22:07:10.286Z,11.42
2023-04-27T22:09:36.861Z,11.46
2023-04-27T22:12:03.967Z,11.52
2023-04-27T22:14:33.312Z,11.34
2023-04-27T22:17:00.935Z,11.31
2023-04-27T22:19:28.564Z,11.36
2023-04-27T22:21:55.394Z,11.39
2023-04-27T22:24:22.265Z,11.39
2023-04-27T22:26:48.618Z,11.28
2023-04-27T22:29:15.738Z,11.19
2023-04-27T22:31:43.169Z,11.22
2023-04-27T22:34:11.615Z,11.26
2023-04-27T22:36:38.136Z,11.31
2023-04-27T22:39:05.525Z,11.29
2023-04-27T22:41:31.929Z,11.14
2023-04-27T22:43:58.381Z,11.07
2023-04-27T22:46:25.437Z,11.05
2023-04-27T22:48:52.958Z,11.01
2023-04-27T22:51:19.549Z,10.88
2023-04-27T22:53:46.163Z,10.96
2023-04-27T22:56:12.946Z,11.01
2023-04-27T22:58:39.363Z,11.05
2023-04-27T23:01:06.062Z,11.11
2023-04-27T23:03:32.936Z,11.07
2023-04-27T23:06:00.823Z,11.05
2023-04-27T23:08:28.771Z,10.99
2023-04-27T23:10:56.195Z,10.96
2023-04-27T23:13:26.691Z,10.89
2023-04-27T23:15:54.364Z,10.85
2023-04-27T23:18:21.269Z,10.82
2023-04-27T23:20:52.641Z,10.80
2023-04-27T23:23:19.095Z,10.82
2023-04-27T23:25:45.780Z,10.77
2023-04-27T23:28:12.267Z,10.70
2023-04-27T23:30:38.790Z,10.71
2023-04-27T23:33:05.630Z,10.74
2023-04-27T23:35:32.346Z,10.72
2023-04-27T23:37:58.763Z,10.81
2023-04-27T23:40:25.300Z,10.85
2023-04-27T23:42:52.543Z,10.81
2023-04-27T23:45:19.531Z,10.76
2023-04-27T23:47:46.383Z,10.73
2023-04-27T23:50:13.049Z,10.71
2023-04-27T23:52:39.804Z,10.73
2023-04-27T23:55:07.200Z,10.66
2023-04-27T23:57:33.644Z,10.60
